La Marque, Texas
Current Conditions -  °F | °C
As of 11:08 PM on Sunday 21 Dec 2014 (Local Time) from KGLS Reporting Station
Broken Clouds Broken Clouds  
Wind Chill: 16°   Ceiling: 1700
Heat Index: 16°   Visibility: 10mi
Dew Point: 15°   Wind: 7mph
Humidity: 96%   Direction: 120°ESE
Pressure: 29.9"   Gusts: NA
Location:  29.37°N, 94.97°W
Report Text: KGLS 220508Z AUTO 12006KT 10SM BKN017 16/15 A2990 RMK AO1 T01560150
Loading
Personal Weather Stations






























Interactive Weather Map New forecast layout! Learn more

10-Day Weather Forecast

Advertisements
Track Severe Weather on mobile